Time;durP1;ratioP1;P1;durP2;ratioP2;P2;SDS_P1;SDS_P2;PMS_P1;PMS_P2;Temp;Humidity;BMP_temperature;BMP_pressure;BME280_temperature;BME280_humidity;BME280_pressure;Samples;Min_cycle;Max_cycle;Signal;HPM_P1;HPM_P2
2022/03/18 00:01:24;;;;;;;15.87;5.47;;;4.00;99.90;;;;;;4917420;29;21011;-60
2022/03/18 00:03:53;;;;;;;15.13;5.77;;;4.00;99.90;;;;;;4917326;29;21015;-60
2022/03/18 00:06:21;;;;;;;15.67;4.70;;;3.90;99.90;;;;;;4917202;29;20543;-60
2022/03/18 00:08:51;;;;;;;12.57;4.80;;;3.90;99.90;;;;;;4926941;29;20554;-60
2022/03/18 00:11:19;;;;;;;13.43;4.30;;;3.80;99.90;;;;;;4936315;29;20912;-60
2022/03/18 00:13:47;;;;;;;12.87;4.17;;;3.80;99.90;;;;;;4936034;29;20513;-60
2022/03/18 00:16:15;;;;;;;9.43;3.43;;;3.80;99.90;;;;;;4924174;29;20475;-60
2022/03/18 00:18:43;;;;;;;11.47;3.80;;;3.80;99.90;;;;;;4926245;29;20499;-60
2022/03/18 00:21:12;;;;;;;12.23;3.40;;;3.80;99.90;;;;;;4936518;29;20842;-60
2022/03/18 00:23:40;;;;;;;10.07;3.40;;;3.70;99.90;;;;;;4929536;29;20479;-60
2022/03/18 00:26:09;;;;;;;10.53;3.53;;;3.80;99.90;;;;;;4917349;29;20476;-60
2022/03/18 00:28:43;;;;;;;13.17;3.60;;;3.80;99.90;;;;;;4925787;29;20623;-60
2022/03/18 00:31:12;;;;;;;14.53;4.53;;;3.70;99.90;;;;;;4936370;29;21033;-60
2022/03/18 00:33:40;;;;;;;11.30;3.20;;;3.70;99.90;;;;;;4935783;29;20484;-60
2022/03/18 00:36:08;;;;;;;7.53;3.60;;;4.10;99.90;;;;;;4935905;29;20498;-60
2022/03/18 00:38:36;;;;;;;7.20;3.53;;;4.10;99.90;;;;;;4935581;29;20795;-60
2022/03/18 00:41:04;;;;;;;12.10;3.70;;;4.10;99.90;;;;;;4935598;29;20506;-60
2022/03/18 00:43:34;;;;;;;9.53;3.67;;;4.10;99.90;;;;;;4927582;29;20491;-60
2022/03/18 00:46:02;;;;;;;10.83;4.00;;;4.20;99.90;;;;;;4916779;29;20508;-60
2022/03/18 00:54:01;;;;;;;15.63;5.53;;;4.30;99.90;;;;;;4923553;29;20487;-60
2022/03/18 00:56:29;;;;;;;20.00;5.63;;;4.10;99.90;;;;;;4916479;29;21047;-60
2022/03/18 00:58:59;;;;;;;17.70;5.20;;;3.80;99.90;;;;;;4927520;29;20531;-60
2022/03/18 01:01:28;;;;;;;17.03;6.13;;;3.80;99.90;;;;;;4935221;29;20839;-60
2022/03/18 01:03:56;;;;;;;18.03;6.23;;;3.80;99.90;;;;;;4924333;29;20492;-60
2022/03/18 01:06:24;;;;;;;15.97;4.80;;;3.90;99.90;;;;;;4916196;29;20479;-60
2022/03/18 01:08:52;;;;;;;22.03;6.67;;;3.90;99.90;;;;;;4925416;29;20506;-60
2022/03/18 01:11:20;;;;;;;11.83;4.40;;;4.00;99.90;;;;;;4935186;29;20578;-60
2022/03/18 01:13:48;;;;;;;12.37;4.10;;;4.00;99.90;;;;;;4934945;29;20468;-60
2022/03/18 01:16:18;;;;;;;12.60;4.30;;;3.90;99.90;;;;;;4934931;29;21014;-60
2022/03/18 01:18:47;;;;;;;9.23;3.37;;;3.80;99.90;;;;;;4934915;29;20522;-60
2022/03/18 01:21:15;;;;;;;14.67;3.83;;;3.90;99.90;;;;;;4934858;29;20475;-60
2022/03/18 01:23:43;;;;;;;15.80;4.53;;;3.90;99.90;;;;;;4925270;29;20570;-60
2022/03/18 01:26:12;;;;;;;12.97;5.30;;;3.70;99.90;;;;;;4916710;29;20534;-60
2022/03/18 01:28:40;;;;;;;13.67;4.23;;;3.50;99.90;;;;;;4924795;29;20549;-60
2022/03/18 01:31:08;;;;;;;16.00;4.57;;;3.40;99.90;;;;;;4935138;29;20551;-60
2022/03/18 01:33:38;;;;;;;14.27;4.23;;;3.30;99.90;;;;;;4934535;29;20491;-60
2022/03/18 01:36:06;;;;;;;17.97;5.27;;;3.50;99.90;;;;;;4934675;29;20503;-60
2022/03/18 01:38:35;;;;;;;12.63;5.13;;;3.30;99.90;;;;;;4930020;29;20471;-60
2022/03/18 01:41:03;;;;;;;13.03;5.00;;;3.20;99.90;;;;;;4915689;29;21113;-60
2022/03/18 01:43:38;;;;;;;14.75;4.85;;;3.20;99.90;;;;;;4922448;29;20465;-60
2022/03/18 01:46:06;;;;;;;12.07;4.77;;;3.50;99.90;;;;;;4934510;29;20290;-60
2022/03/18 01:48:35;;;;;;;10.83;4.17;;;3.50;99.90;;;;;;4931291;29;20866;-60
2022/03/18 01:51:06;;;;;;;11.67;4.73;;;3.40;99.90;;;;;;4929796;29;20495;-60
2022/03/18 01:53:36;;;;;;;12.90;4.70;;;3.30;99.90;;;;;;4914700;29;20901;-60
2022/03/18 01:56:05;;;;;;;11.93;4.03;;;3.20;99.90;;;;;;4915140;29;20470;-60
2022/03/18 01:58:34;;;;;;;14.03;4.50;;;3.10;99.90;;;;;;4915071;29;20501;-60
2022/03/18 02:01:02;;;;;;;8.43;3.93;;;3.00;99.90;;;;;;4913964;29;22788;-60
2022/03/18 02:03:31;;;;;;;12.83;4.83;;;3.00;99.90;;;;;;4914741;29;20543;-60
2022/03/18 02:05:59;;;;;;;9.63;3.20;;;3.00;99.90;;;;;;4914897;29;21033;-60
2022/03/18 02:08:29;;;;;;;9.03;3.70;;;3.20;99.90;;;;;;4916238;29;20931;-60
2022/03/18 02:10:58;;;;;;;6.93;3.27;;;3.10;99.90;;;;;;4915112;29;20489;-60
2022/03/18 02:13:26;;;;;;;11.30;3.63;;;3.30;99.90;;;;;;4914843;29;20536;-60
2022/03/18 02:15:54;;;;;;;12.03;4.03;;;3.40;99.90;;;;;;4914988;29;20569;-60
2022/03/18 02:18:23;;;;;;;9.03;3.50;;;3.20;99.90;;;;;;4921073;29;20895;-60
2022/03/18 02:20:51;;;;;;;9.87;3.37;;;3.10;99.90;;;;;;4933950;29;20506;-60
2022/03/18 02:23:20;;;;;;;8.43;3.33;;;2.90;99.90;;;;;;4927220;29;20571;-60
2022/03/18 02:25:49;;;;;;;11.10;3.70;;;2.90;99.90;;;;;;4914841;29;20804;-60
2022/03/18 02:28:18;;;;;;;9.07;3.30;;;2.80;99.90;;;;;;4920582;29;20540;-60
2022/03/18 02:30:46;;;;;;;8.40;3.40;;;2.70;99.90;;;;;;4933621;29;20481;-60
2022/03/18 02:33:14;;;;;;;10.93;3.50;;;2.70;99.90;;;;;;4928357;29;20475;-60
2022/03/18 02:35:43;;;;;;;12.13;3.27;;;2.70;99.90;;;;;;4914554;29;20563;-60
2022/03/18 02:38:11;;;;;;;8.57;3.00;;;2.70;99.90;;;;;;4919792;29;20470;-60
2022/03/18 02:40:40;;;;;;;10.37;3.00;;;2.60;99.90;;;;;;4930103;29;20532;-60
2022/03/18 02:43:08;;;;;;;13.13;3.47;;;2.60;99.90;;;;;;4914736;29;20984;-60
2022/03/18 02:45:36;;;;;;;10.83;3.90;;;2.60;99.90;;;;;;4914372;29;20473;-60
2022/03/18 02:48:06;;;;;;;7.57;3.13;;;2.60;99.90;;;;;;4918708;29;20468;-60
2022/03/18 02:50:35;;;;;;;7.87;2.77;;;2.60;99.90;;;;;;4933320;29;20474;-60
2022/03/18 02:53:03;;;;;;;9.67;3.53;;;2.60;99.90;;;;;;4929246;29;20488;-60
2022/03/18 02:55:31;;;;;;;8.03;2.93;;;2.60;99.90;;;;;;4914459;29;20905;-60
2022/03/18 02:58:01;;;;;;;10.70;3.20;;;2.50;99.90;;;;;;4914244;29;20485;-60
2022/03/18 03:00:29;;;;;;;10.93;3.37;;;2.50;99.90;;;;;;4914168;29;20474;-60
2022/03/18 03:02:57;;;;;;;8.00;3.07;;;2.40;99.90;;;;;;4914279;29;20485;-60
2022/03/18 03:08:12;;;;;;;7.27;3.00;;;2.40;99.90;;;;;;4914291;29;20883;-60
2022/03/18 03:10:42;;;;;;;11.47;2.80;;;2.40;99.90;;;;;;4914317;29;20973;-60
2022/03/18 03:13:11;;;;;;;8.97;3.40;;;2.40;99.90;;;;;;4914403;29;20544;-60
2022/03/18 03:15:40;;;;;;;12.30;3.80;;;2.40;99.90;;;;;;4914285;29;20483;-60
2022/03/18 03:18:09;;;;;;;15.67;3.67;;;2.50;99.90;;;;;;4918766;29;20547;-60
2022/03/18 03:20:37;;;;;;;7.73;3.10;;;2.40;99.90;;;;;;4933040;29;20477;-60
2022/03/18 03:23:05;;;;;;;10.70;3.20;;;2.40;99.90;;;;;;4927203;29;20496;-60
2022/03/18 03:25:33;;;;;;;10.80;3.73;;;2.40;99.90;;;;;;4914161;29;20969;-60
2022/03/18 03:28:02;;;;;;;13.90;3.30;;;2.40;99.90;;;;;;4917910;29;20484;-60
2022/03/18 03:30:31;;;;;;;12.27;3.80;;;2.50;99.90;;;;;;4932861;29;20480;-60
2022/03/18 03:32:59;;;;;;;13.07;3.57;;;2.40;99.90;;;;;;4919249;29;20484;-60
2022/03/18 03:35:27;;;;;;;10.37;3.47;;;2.40;99.90;;;;;;4917674;29;20490;-61
2022/03/18 03:37:56;;;;;;;9.40;3.30;;;2.40;99.90;;;;;;4917716;29;20534;-60
2022/03/18 03:40:24;;;;;;;14.43;3.30;;;2.40;99.90;;;;;;4917650;29;20477;-60
2022/03/18 03:42:53;;;;;;;9.53;3.77;;;2.30;99.90;;;;;;4917692;29;21004;-60
2022/03/18 03:45:21;;;;;;;9.50;3.10;;;2.30;99.90;;;;;;4917695;29;20566;-60
2022/03/18 03:47:51;;;;;;;6.77;3.03;;;2.40;99.90;;;;;;4919591;29;20514;-60
2022/03/18 03:50:19;;;;;;;9.00;3.03;;;2.40;99.90;;;;;;4936571;29;20477;-60
2022/03/18 03:52:48;;;;;;;10.93;3.53;;;2.40;99.90;;;;;;4933523;29;20832;-60
2022/03/18 03:55:16;;;;;;;11.10;3.60;;;2.40;99.90;;;;;;4917541;29;20477;-60
2022/03/18 03:57:44;;;;;;;10.73;3.67;;;2.40;99.90;;;;;;4918466;29;20508;-60
2022/03/18 04:00:14;;;;;;;12.23;3.53;;;2.50;99.90;;;;;;4936915;29;20496;-60
2022/03/18 04:02:43;;;;;;;10.47;3.80;;;2.40;99.90;;;;;;4936329;29;20491;-60
2022/03/18 04:05:13;;;;;;;11.27;3.27;;;2.40;99.90;;;;;;4936634;29;20558;-60
2022/03/18 04:07:44;;;;;;;8.90;3.87;;;2.50;99.90;;;;;;4933379;29;20514;-60
2022/03/18 04:10:14;;;;;;;9.17;3.80;;;2.40;99.90;;;;;;4936321;29;20482;-60
2022/03/18 04:12:44;;;;;;;10.83;4.03;;;2.40;99.90;;;;;;4935772;29;20484;-60
2022/03/18 04:15:12;;;;;;;9.63;3.63;;;2.40;99.90;;;;;;4932900;29;20575;-60
2022/03/18 04:17:43;;;;;;;10.80;3.83;;;2.50;99.90;;;;;;4917072;29;20485;-60
2022/03/18 04:20:14;;;;;;;7.13;3.63;;;2.40;99.90;;;;;;4917330;29;20833;-60
2022/03/18 04:22:42;;;;;;;9.20;3.37;;;2.40;99.90;;;;;;4917806;29;20512;-60
2022/03/18 04:25:11;;;;;;;9.83;3.20;;;2.30;99.90;;;;;;4936063;29;20481;-60
2022/03/18 04:27:39;;;;;;;11.00;4.07;;;2.40;99.90;;;;;;4933961;29;20538;-59
2022/03/18 04:30:11;;;;;;;7.10;3.73;;;2.40;99.90;;;;;;4917067;29;20477;-60
2022/03/18 04:32:40;;;;;;;11.77;4.20;;;2.50;99.90;;;;;;4917534;29;20804;-60
2022/03/18 04:35:11;;;;;;;12.43;4.40;;;2.40;99.90;;;;;;4935925;29;20478;-60
2022/03/18 04:37:41;;;;;;;7.63;3.90;;;2.40;99.90;;;;;;4935719;29;20531;-60
2022/03/18 04:40:12;;;;;;;10.27;3.87;;;2.60;99.90;;;;;;4935987;29;20470;-60
2022/03/18 04:42:41;;;;;;;9.53;4.57;;;2.60;99.90;;;;;;4935225;29;20481;-60
2022/03/18 04:45:10;;;;;;;12.07;5.33;;;2.90;99.90;;;;;;4935803;29;20999;-60
2022/03/18 04:47:38;;;;;;;15.03;5.20;;;3.00;99.90;;;;;;4932668;29;20540;-60
2022/03/18 04:50:07;;;;;;;11.33;4.30;;;3.10;99.90;;;;;;4935693;29;20456;-60
2022/03/18 04:52:35;;;;;;;13.80;4.53;;;3.10;99.90;;;;;;4932316;29;20536;-60
2022/03/18 04:55:06;;;;;;;7.97;4.27;;;3.10;99.90;;;;;;4935433;29;20552;-60
2022/03/18 04:57:34;;;;;;;13.67;4.93;;;2.90;99.90;;;;;;4935063;29;20471;-60
2022/03/18 05:00:03;;;;;;;10.53;4.93;;;2.90;99.90;;;;;;4935457;29;20842;-60
2022/03/18 05:02:31;;;;;;;13.80;5.03;;;2.60;99.90;;;;;;4935130;29;20507;-60
2022/03/18 05:04:59;;;;;;;10.80;4.33;;;2.50;99.90;;;;;;4897358;29;20492;-60
2022/03/18 05:07:27;;;;;;;9.07;4.47;;;2.40;99.90;;;;;;4899299;29;20502;-60
2022/03/18 05:09:55;;;;;;;10.70;4.97;;;2.50;99.90;;;;;;4934698;29;20524;-60
2022/03/18 05:12:27;;;;;;;8.13;4.23;;;2.40;99.90;;;;;;4935059;29;20839;-60
2022/03/18 05:14:56;;;;;;;11.80;4.50;;;2.60;99.90;;;;;;4934929;29;20579;-60
2022/03/18 05:17:24;;;;;;;10.50;4.27;;;2.40;99.90;;;;;;4934997;29;20478;-60
2022/03/18 05:19:52;;;;;;;11.27;5.23;;;2.30;99.90;;;;;;4916814;29;20990;-60
2022/03/18 05:22:20;;;;;;;12.47;5.30;;;2.20;99.90;;;;;;4915473;29;20487;-60
2022/03/18 05:24:48;;;;;;;14.80;6.80;;;2.30;99.90;;;;;;4933132;29;20490;-60
2022/03/18 05:27:17;;;;;;;19.90;9.40;;;2.60;99.90;;;;;;4934300;29;20474;-60
2022/03/18 05:29:47;;;;;;;18.63;7.90;;;2.70;99.90;;;;;;4915136;29;20515;-60
2022/03/18 05:32:15;;;;;;;16.60;6.67;;;2.50;99.90;;;;;;4915864;29;20478;-60
2022/03/18 05:34:43;;;;;;;13.40;5.40;;;2.30;99.90;;;;;;4932432;29;20993;-60
2022/03/18 05:37:12;;;;;;;11.73;6.20;;;2.70;99.90;;;;;;4935138;29;20464;-60
2022/03/18 05:39:40;;;;;;;13.90;7.40;;;2.60;99.90;;;;;;4934344;29;20472;-60
2022/03/18 05:42:09;;;;;;;12.97;6.77;;;2.50;99.90;;;;;;4934776;29;20966;-60
2022/03/18 05:44:37;;;;;;;10.00;5.93;;;2.30;99.90;;;;;;4934314;29;21032;-60
2022/03/18 05:47:07;;;;;;;9.63;5.50;;;2.30;99.90;;;;;;4934497;29;20971;-60
2022/03/18 05:49:36;;;;;;;11.03;6.00;;;2.60;99.90;;;;;;4931389;29;20540;-60
2022/03/18 05:52:08;;;;;;;11.47;5.50;;;2.70;99.90;;;;;;4932930;29;20972;-60
2022/03/18 05:54:37;;;;;;;11.27;6.90;;;2.60;99.90;;;;;;4917265;29;20508;-60
2022/03/18 05:57:04;;;;;;;11.67;5.90;;;2.80;99.90;;;;;;4924605;29;20853;-60
2022/03/18 05:59:34;;;;;;;9.33;5.50;;;3.20;99.90;;;;;;4922681;29;20895;-60
2022/03/18 06:02:02;;;;;;;9.97;6.30;;;3.30;99.90;;;;;;4929838;29;20474;-60
2022/03/18 06:04:32;;;;;;;11.70;5.63;;;3.50;99.90;;;;;;4923870;29;20475;-60
2022/03/18 06:07:03;;;;;;;10.93;5.30;;;3.40;99.90;;;;;;4919990;29;20480;-60
2022/03/18 06:12:17;;;;;;;14.10;6.43;;;3.70;99.90;;;;;;4924627;29;20919;-60
2022/03/18 06:14:45;;;;;;;10.03;5.83;;;3.50;99.90;;;;;;4915677;29;20494;-60
2022/03/18 06:17:13;;;;;;;7.47;4.50;;;3.30;99.90;;;;;;4914957;29;20472;-60
2022/03/18 06:19:43;;;;;;;7.67;5.53;;;3.30;99.90;;;;;;4924290;29;20488;-60
2022/03/18 06:22:11;;;;;;;9.33;5.07;;;3.30;99.90;;;;;;4918445;29;20836;-60
2022/03/18 06:24:41;;;;;;;12.53;4.80;;;3.40;99.90;;;;;;4919154;29;21420;-60
2022/03/18 06:27:09;;;;;;;9.60;5.60;;;3.50;99.90;;;;;;4921746;29;21032;-60
2022/03/18 06:29:42;;;;;;;13.33;6.10;;;3.80;99.90;;;;;;4924191;29;20485;-60
2022/03/18 06:32:11;;;;;;;9.70;5.20;;;3.90;99.90;;;;;;4925170;29;20516;-60
2022/03/18 06:34:39;;;;;;;8.73;5.47;;;3.70;99.90;;;;;;4925723;29;20485;-60
2022/03/18 06:37:08;;;;;;;10.13;4.37;;;3.70;99.90;;;;;;4918065;29;20892;-60
2022/03/18 06:39:36;;;;;;;10.20;5.17;;;4.00;99.90;;;;;;4925685;29;21003;-60
2022/03/18 06:42:05;;;;;;;9.40;4.97;;;4.00;99.90;;;;;;4913882;29;20489;-60
2022/03/18 06:44:33;;;;;;;10.50;5.10;;;4.00;99.90;;;;;;4916355;29;20488;-60
2022/03/18 06:47:01;;;;;;;11.67;4.90;;;3.90;99.90;;;;;;4919113;29;20554;-60
2022/03/18 06:49:30;;;;;;;14.10;5.63;;;4.10;99.90;;;;;;4921616;29;20479;-60
2022/03/18 06:51:59;;;;;;;10.57;5.90;;;3.90;99.90;;;;;;4914460;29;20517;-60
2022/03/18 06:54:28;;;;;;;11.20;5.50;;;3.80;99.90;;;;;;4919585;29;20976;-60
2022/03/18 06:56:56;;;;;;;10.50;5.97;;;3.70;99.90;;;;;;4925399;29;20544;-60
2022/03/18 06:59:24;;;;;;;11.80;6.03;;;3.80;99.90;;;;;;4919954;29;20471;-60
2022/03/18 07:01:53;;;;;;;12.03;6.27;;;4.10;99.90;;;;;;4931738;29;20484;-60
2022/03/18 07:04:24;;;;;;;11.77;6.20;;;4.20;99.90;;;;;;4925331;29;20489;-60
2022/03/18 07:06:52;;;;;;;11.13;5.70;;;4.50;99.90;;;;;;4917041;29;20476;-60
2022/03/18 07:09:20;;;;;;;11.23;6.00;;;4.60;99.90;;;;;;4898514;29;20567;-60
2022/03/18 07:11:51;;;;;;;10.97;5.27;;;4.50;99.90;;;;;;4913781;29;20471;-60
2022/03/18 07:14:19;;;;;;;15.00;7.10;;;4.70;99.90;;;;;;4910187;29;20481;-60
2022/03/18 07:19:33;;;;;;;12.33;6.60;;;4.70;99.90;;;;;;4915104;29;20480;-59
2022/03/18 07:22:01;;;;;;;17.83;7.03;;;4.70;99.90;;;;;;4915509;29;20484;-60
2022/03/18 07:24:29;;;;;;;20.83;12.03;;;4.80;99.90;;;;;;4915105;29;20480;-60
2022/03/18 07:26:59;;;;;;;31.30;19.73;;;4.70;99.90;;;;;;4913732;29;20833;-60
2022/03/18 07:29:28;;;;;;;20.97;14.53;;;4.90;99.90;;;;;;4912821;29;20512;-60
2022/03/18 07:31:56;;;;;;;19.53;14.27;;;4.80;99.90;;;;;;4911576;29;20477;-60
2022/03/18 07:34:24;;;;;;;18.93;10.13;;;4.80;99.90;;;;;;4921514;29;20273;-59
2022/03/18 07:36:52;;;;;;;15.43;8.27;;;5.00;99.90;;;;;;4927012;29;20481;-59
2022/03/18 07:39:20;;;;;;;21.57;10.83;;;5.20;99.90;;;;;;4914083;29;20507;-60
2022/03/18 07:41:49;;;;;;;13.67;7.73;;;5.10;99.90;;;;;;4913359;29;20872;-60
2022/03/18 07:44:20;;;;;;;13.50;8.20;;;5.10;99.90;;;;;;4896178;29;20503;-60
2022/03/18 07:46:48;;;;;;;15.10;7.87;;;5.10;99.90;;;;;;4913412;29;21026;-60
2022/03/18 07:49:16;;;;;;;12.80;7.33;;;5.20;99.90;;;;;;4914338;29;20840;-59
2022/03/18 07:51:44;;;;;;;14.57;6.97;;;5.30;99.90;;;;;;4913213;29;20269;-59
2022/03/18 07:54:12;;;;;;;13.27;6.10;;;5.50;99.90;;;;;;4911062;29;20291;-59
2022/03/18 07:56:41;;;;;;;13.47;6.20;;;5.40;99.90;;;;;;4914572;29;20487;-60
2022/03/18 07:59:09;;;;;;;12.60;6.57;;;5.50;99.90;;;;;;4914820;29;20593;-59
2022/03/18 08:01:40;;;;;;;14.10;6.40;;;5.50;99.90;;;;;;4908270;29;20504;-59
2022/03/18 08:04:12;;;;;;;10.77;6.37;;;5.50;99.90;;;;;;4913410;29;20326;-59
2022/03/18 08:06:40;;;;;;;12.00;6.20;;;5.50;99.90;;;;;;4913316;29;20240;-59
2022/03/18 08:09:08;;;;;;;7.87;6.17;;;5.50;99.90;;;;;;4915294;29;20803;-59
2022/03/18 08:11:36;;;;;;;9.57;5.97;;;5.40;99.90;;;;;;4913294;29;20248;-59
2022/03/18 08:14:06;;;;;;;8.90;6.20;;;5.30;99.90;;;;;;4923799;29;20668;-60
2022/03/18 08:16:34;;;;;;;9.80;6.77;;;5.30;99.90;;;;;;4911582;29;20264;-59
2022/03/18 08:19:04;;;;;;;11.07;6.03;;;5.40;99.90;;;;;;4914244;29;22693;-59
2022/03/18 08:21:34;;;;;;;16.43;8.20;;;5.70;99.90;;;;;;4916351;29;20480;-59
2022/03/18 08:24:03;;;;;;;17.50;7.07;;;6.20;99.90;;;;;;4917535;29;20696;-59
2022/03/18 08:26:34;;;;;;;11.53;6.93;;;6.60;99.90;;;;;;4918638;29;20240;-59
2022/03/18 08:29:03;;;;;;;13.23;6.57;;;7.00;99.90;;;;;;4910842;29;20314;-59
2022/03/18 08:31:31;;;;;;;13.57;6.33;;;7.30;99.90;;;;;;4927552;29;20373;-59
2022/03/18 08:33:59;;;;;;;10.17;6.67;;;7.60;99.90;;;;;;4927389;29;20340;-59
2022/03/18 08:36:28;;;;;;;13.03;6.70;;;7.90;99.90;;;;;;4927573;29;20275;-59
2022/03/18 08:38:56;;;;;;;11.93;6.40;;;8.10;99.90;;;;;;4935477;29;20244;-59
2022/03/18 08:41:25;;;;;;;12.60;6.13;;;8.40;99.90;;;;;;4927535;29;20263;-60
2022/03/18 08:43:53;;;;;;;9.40;6.70;;;8.60;99.90;;;;;;4920071;29;20717;-60
2022/03/18 08:46:21;;;;;;;12.17;5.70;;;8.80;99.90;;;;;;4915949;29;20293;-60
2022/03/18 08:48:49;;;;;;;13.67;6.23;;;9.10;99.90;;;;;;4920389;29;20247;-60
2022/03/18 08:51:17;;;;;;;13.13;5.90;;;9.30;99.90;;;;;;4927530;29;20267;-59
2022/03/18 08:53:46;;;;;;;9.40;6.10;;;9.50;99.90;;;;;;4927197;29;20267;-59
2022/03/18 08:56:15;;;;;;;11.53;6.07;;;9.80;99.90;;;;;;4916075;29;20763;-60
2022/03/18 08:58:43;;;;;;;10.27;5.93;;;9.90;99.90;;;;;;4915669;29;20704;-58
2022/03/18 09:01:12;;;;;;;12.00;6.07;;;10.10;99.90;;;;;;4916359;29;20245;-60
2022/03/18 09:03:41;;;;;;;13.83;6.23;;;10.20;99.90;;;;;;4920081;29;20760;-60
2022/03/18 09:06:09;;;;;;;11.20;5.37;;;10.50;99.90;;;;;;4927607;29;20240;-59
2022/03/18 09:08:37;;;;;;;11.20;6.13;;;10.70;99.90;;;;;;4927975;29;20239;-59
2022/03/18 09:11:07;;;;;;;11.87;5.73;;;10.90;99.90;;;;;;4935204;29;20291;-59
2022/03/18 09:13:35;;;;;;;12.53;6.10;;;11.10;99.90;;;;;;4934870;29;20240;-59
2022/03/18 09:16:05;;;;;;;12.57;6.33;;;11.30;99.90;;;;;;4926984;29;20320;-59
2022/03/18 09:18:53;;;;;;;11.43;6.77;;;11.50;99.90;;;;;;4915820;29;20277;-59
2022/03/18 09:21:21;;;;;;;11.60;6.23;;;11.80;99.90;;;;;;4916014;29;20246;-59
2022/03/18 09:23:49;;;;;;;10.33;6.23;;;12.00;99.90;;;;;;4933945;29;20315;-59
2022/03/18 09:26:18;;;;;;;13.93;6.70;;;12.10;99.90;;;;;;4934932;29;20598;-60
2022/03/18 09:28:47;;;;;;;10.53;5.47;;;12.20;99.90;;;;;;4921424;29;20307;-60
2022/03/18 09:31:16;;;;;;;11.33;6.37;;;12.30;99.90;;;;;;4916074;29;20266;-60
2022/03/18 09:33:46;;;;;;;13.63;6.47;;;12.50;99.90;;;;;;4915336;29;20766;-59
2022/03/18 09:36:18;;;;;;;13.23;6.53;;;12.70;99.90;;;;;;4915418;29;20238;-59
2022/03/18 09:38:47;;;;;;;10.87;6.73;;;12.90;99.90;;;;;;4912913;29;20746;-59
2022/03/18 09:41:16;;;;;;;11.23;6.60;;;13.20;99.90;;;;;;4915273;29;20259;-59
2022/03/18 09:43:46;;;;;;;14.33;7.00;;;13.40;99.90;;;;;;4914163;29;20644;-58
2022/03/18 09:46:16;;;;;;;12.40;6.40;;;13.70;99.90;;;;;;4915393;29;20248;-59
2022/03/18 09:49:01;;;;;;;13.27;6.37;;;13.80;99.90;;;;;;4922305;29;20250;-59
2022/03/18 09:51:30;;;;;;;13.53;6.93;;;13.80;99.90;;;;;;4914840;29;20240;-59
2022/03/18 09:54:26;;;;;;;13.33;6.80;;;14.10;99.90;;;;;;4915362;29;20729;-59
2022/03/18 09:56:54;;;;;;;14.00;6.67;;;14.20;99.90;;;;;;4915272;29;20251;-59
2022/03/18 09:59:25;;;;;;;11.33;6.53;;;14.30;99.90;;;;;;4914938;29;20245;-59
2022/03/18 10:02:27;;;;;;;13.40;6.20;;;14.40;99.90;;;;;;4915180;29;20252;-59
2022/03/18 10:04:57;;;;;;;11.43;6.60;;;14.60;99.90;;;;;;4914545;29;20255;-59
2022/03/18 10:07:26;;;;;;;10.47;6.63;;;14.80;99.90;;;;;;4915157;29;20732;-59
2022/03/18 10:10:03;;;;;;;15.43;7.07;;;14.90;99.90;;;;;;4926080;29;20283;-59
2022/03/18 10:12:33;;;;;;;12.70;6.50;;;14.80;99.90;;;;;;4914541;29;20653;-59
2022/03/18 10:15:22;;;;;;;13.00;6.33;;;15.00;99.90;;;;;;4913893;29;20346;-59
2022/03/18 10:17:54;;;;;;;14.83;6.50;;;15.50;99.90;;;;;;4914265;29;20291;-59
2022/03/18 10:20:31;;;;;;;11.33;5.97;;;15.60;99.90;;;;;;4914450;29;20232;-59
2022/03/18 10:23:05;;;;;;;15.37;6.33;;;15.90;99.90;;;;;;4926312;29;20250;-59
2022/03/18 10:25:35;;;;;;;13.07;6.63;;;16.10;99.90;;;;;;4933807;29;20330;-59
2022/03/18 10:28:04;;;;;;;14.27;6.43;;;16.20;99.90;;;;;;4930868;29;20254;-59
2022/03/18 10:30:34;;;;;;;15.23;6.27;;;16.20;99.90;;;;;;4933591;29;20322;-59
2022/03/18 10:33:02;;;;;;;13.00;6.00;;;16.30;99.90;;;;;;4930095;29;20259;-59
2022/03/18 10:38:29;;;;;;;12.23;6.57;;;16.70;99.90;;;;;;4915138;29;20264;-59
2022/03/18 10:40:58;;;;;;;13.13;6.27;;;16.70;99.90;;;;;;4924291;29;20296;-59
2022/03/18 10:43:26;;;;;;;13.00;6.27;;;16.90;99.90;;;;;;4916174;29;20325;-59
2022/03/18 10:46:04;;;;;;;10.83;6.07;;;16.90;99.90;;;;;;4917624;29;21662;-59
2022/03/18 10:48:33;;;;;;;11.40;5.90;;;17.00;99.90;;;;;;4920254;29;20244;-59
2022/03/18 10:51:09;;;;;;;14.40;5.87;;;17.10;99.90;;;;;;4925673;29;20239;-58
2022/03/18 10:53:39;;;;;;;10.53;5.83;;;17.30;99.90;;;;;;4928209;29;20641;-59
2022/03/18 10:56:08;;;;;;;13.70;6.07;;;17.40;99.90;;;;;;4925555;29;20862;-59
2022/03/18 10:58:38;;;;;;;12.60;5.63;;;17.30;99.90;;;;;;4931753;29;20242;-59
2022/03/18 11:01:07;;;;;;;12.50;6.60;;;17.60;99.90;;;;;;4920485;29;20237;-59
2022/03/18 11:03:36;;;;;;;13.20;6.03;;;17.70;99.90;;;;;;4913582;29;20642;-59
2022/03/18 11:06:04;;;;;;;14.97;7.63;;;17.60;99.90;;;;;;4914066;29;20237;-59
2022/03/18 11:08:36;;;;;;;13.53;6.47;;;17.10;99.90;;;;;;4913161;29;20253;-59
2022/03/18 11:11:11;;;;;;;9.27;6.00;;;17.30;99.90;;;;;;4921776;29;20265;-59
2022/03/18 11:13:56;;;;;;;13.10;6.47;;;17.30;99.90;;;;;;4914615;29;20240;-59
2022/03/18 11:16:29;;;;;;;13.13;6.97;;;17.60;99.90;;;;;;4915390;29;20240;-59
2022/03/18 11:18:58;;;;;;;12.10;7.00;;;17.70;99.90;;;;;;4914297;29;20260;-59
2022/03/18 11:21:35;;;;;;;13.47;6.53;;;17.80;99.90;;;;;;4914134;29;20315;-59
2022/03/18 11:24:05;;;;;;;12.67;6.57;;;17.90;99.90;;;;;;4923290;29;20580;-59
2022/03/18 11:26:35;;;;;;;14.67;6.23;;;17.70;99.90;;;;;;4925055;29;20246;-59
2022/03/18 11:29:08;;;;;;;12.20;6.43;;;17.70;99.90;;;;;;4924663;29;20276;-60
2022/03/18 11:31:38;;;;;;;13.30;6.90;;;18.10;99.90;;;;;;4924846;29;20320;-59
2022/03/18 11:34:15;;;;;;;12.73;6.47;;;18.30;99.90;;;;;;4927745;29;20241;-59
2022/03/18 11:36:48;;;;;;;11.70;6.07;;;18.30;99.90;;;;;;4915017;29;20660;-59
2022/03/18 11:39:21;;;;;;;15.50;6.97;;;18.30;99.90;;;;;;4929282;29;20650;-59
2022/03/18 11:41:52;;;;;;;12.20;6.20;;;18.20;99.90;;;;;;4926678;29;20249;-59
2022/03/18 11:44:49;;;;;;;12.80;6.03;;;18.30;99.90;;;;;;4926453;29;20713;-59
2022/03/18 11:47:44;;;;;;;10.87;5.67;;;18.30;99.90;;;;;;4920971;29;20268;-58
2022/03/18 11:50:38;;;;;;;14.23;6.00;;;18.50;99.90;;;;;;4922408;29;20248;-59
2022/03/18 11:53:07;;;;;;;10.87;5.67;;;18.60;99.90;;;;;;4935158;29;20267;-59
2022/03/18 11:55:35;;;;;;;9.17;5.37;;;18.50;99.90;;;;;;4928516;29;20259;-59
2022/03/18 11:58:28;;;;;;;11.40;5.50;;;18.30;99.90;;;;;;4931313;29;20251;-59
2022/03/18 12:00:56;;;;;;;10.03;5.43;;;18.10;99.90;;;;;;4928528;29;20248;-59
2022/03/18 12:03:31;;;;;;;12.23;5.60;;;18.00;99.90;;;;;;4931264;29;20663;-59
2022/03/18 12:06:01;;;;;;;11.20;5.73;;;17.70;99.90;;;;;;4917534;29;20250;-59
2022/03/18 12:08:58;;;;;;;12.20;5.30;;;17.20;99.90;;;;;;4920039;29;20571;-59
2022/03/18 12:11:35;;;;;;;11.70;5.93;;;17.20;99.90;;;;;;4928120;29;20756;-58
2022/03/18 12:14:12;;;;;;;12.17;6.30;;;16.80;99.90;;;;;;4918038;29;20237;-59
2022/03/18 12:16:40;;;;;;;12.07;6.33;;;16.60;99.90;;;;;;4923185;29;20295;-59
2022/03/18 12:19:29;;;;;;;8.80;5.40;;;16.50;99.90;;;;;;4923470;29;20232;-59
2022/03/18 12:22:01;;;;;;;11.40;6.13;;;16.50;99.90;;;;;;4926876;29;20249;-59
2022/03/18 12:24:30;;;;;;;13.33;6.13;;;16.60;99.90;;;;;;4932355;29;20279;-59
2022/03/18 12:27:00;;;;;;;15.03;5.93;;;16.80;99.90;;;;;;4931077;29;20342;-59
2022/03/18 12:29:29;;;;;;;12.00;6.13;;;16.80;99.90;;;;;;4925491;29;20649;-59
2022/03/18 12:32:09;;;;;;;10.90;5.83;;;16.80;99.90;;;;;;4916925;29;20242;-59
2022/03/18 12:34:47;;;;;;;11.40;6.57;;;16.30;99.90;;;;;;4915877;29;20257;-59
2022/03/18 12:37:19;;;;;;;9.00;5.67;;;15.80;99.90;;;;;;4922454;29;20245;-59
2022/03/18 12:39:48;;;;;;;10.87;6.07;;;15.30;99.90;;;;;;4919687;29;20241;-59
2022/03/18 12:42:16;;;;;;;12.53;6.07;;;15.00;99.90;;;;;;4916360;29;20233;-60
2022/03/18 12:44:48;;;;;;;10.53;5.20;;;15.00;99.90;;;;;;4916643;29;20264;-58
2022/03/18 12:47:16;;;;;;;10.37;5.47;;;14.70;99.90;;;;;;4916598;29;20779;-60
2022/03/18 12:49:46;;;;;;;14.13;5.67;;;14.90;99.90;;;;;;4914962;29;20297;-60
2022/03/18 12:52:15;;;;;;;12.40;5.70;;;15.00;99.90;;;;;;4916210;29;20244;-59
2022/03/18 12:55:05;;;;;;;14.00;5.10;;;14.90;99.90;;;;;;4915944;29;20288;-59
2022/03/18 12:57:35;;;;;;;11.70;5.83;;;15.30;99.90;;;;;;4916078;29;20304;-59
2022/03/18 13:00:04;;;;;;;9.03;4.10;;;15.40;99.90;;;;;;4921710;29;20604;-59
2022/03/18 13:02:52;;;;;;;12.43;5.17;;;15.10;99.90;;;;;;4914563;29;20251;-59
2022/03/18 13:05:28;;;;;;;10.40;4.60;;;14.90;99.90;;;;;;4923792;29;20245;-59
2022/03/18 13:07:57;;;;;;;9.73;3.60;;;14.70;99.90;;;;;;4919288;29;20247;-59
2022/03/18 13:10:27;;;;;;;7.80;4.10;;;14.60;99.90;;;;;;4925151;29;20645;-59
2022/03/18 13:13:06;;;;;;;10.40;4.53;;;14.30;99.90;;;;;;4916165;29;20841;-59
2022/03/18 13:15:35;;;;;;;12.67;4.83;;;14.10;99.90;;;;;;4926497;29;20239;-59
2022/03/18 13:18:11;;;;;;;13.47;4.60;;;13.90;99.90;;;;;;4931428;29;20244;-59